sensor_id;sensor_type;location;lat;lon;timestamp;P1;durP1;ratioP1;P2;durP2;ratioP2
23573;SDS011;11965;53.640;10.050;2023-12-20T00:01:01;6.92;;;4.53;;
23573;SDS011;11965;53.640;10.050;2023-12-20T00:03:28;5.74;;;3.76;;
23573;SDS011;11965;53.640;10.050;2023-12-20T00:06:06;4.97;;;3.31;;
23573;SDS011;11965;53.640;10.050;2023-12-20T00:08:33;5.86;;;3.86;;
23573;SDS011;11965;53.640;10.050;2023-12-20T00:11:00;5.83;;;3.85;;
23573;SDS011;11965;53.640;10.050;2023-12-20T00:13:29;5.98;;;3.92;;
23573;SDS011;11965;53.640;10.050;2023-12-20T00:15:55;5.15;;;3.39;;
23573;SDS011;11965;53.640;10.050;2023-12-20T00:18:22;6.01;;;3.94;;
23573;SDS011;11965;53.640;10.050;2023-12-20T00:20:49;6.02;;;3.93;;
23573;SDS011;11965;53.640;10.050;2023-12-20T00:23:16;6.29;;;4.09;;
23573;SDS011;11965;53.640;10.050;2023-12-20T00:25:43;6.08;;;4.00;;
23573;SDS011;11965;53.640;10.050;2023-12-20T00:28:10;5.39;;;3.62;;
23573;SDS011;11965;53.640;10.050;2023-12-20T00:30:38;5.39;;;3.55;;
23573;SDS011;11965;53.640;10.050;2023-12-20T00:33:05;6.82;;;4.39;;
23573;SDS011;11965;53.640;10.050;2023-12-20T00:35:32;6.82;;;4.31;;
23573;SDS011;11965;53.640;10.050;2023-12-20T00:37:59;6.11;;;3.91;;
23573;SDS011;11965;53.640;10.050;2023-12-20T00:40:26;6.34;;;4.10;;
23573;SDS011;11965;53.640;10.050;2023-12-20T00:42:52;6.53;;;4.21;;
23573;SDS011;11965;53.640;10.050;2023-12-20T00:45:19;6.64;;;4.32;;
23573;SDS011;11965;53.640;10.050;2023-12-20T00:47:47;5.92;;;3.92;;
23573;SDS011;11965;53.640;10.050;2023-12-20T00:50:14;5.68;;;3.81;;
23573;SDS011;11965;53.640;10.050;2023-12-20T00:52:42;6.88;;;4.50;;
23573;SDS011;11965;53.640;10.050;2023-12-20T00:55:09;6.47;;;4.21;;
23573;SDS011;11965;53.640;10.050;2023-12-20T00:57:36;6.57;;;4.23;;
23573;SDS011;11965;53.640;10.050;2023-12-20T01:00:03;6.79;;;4.41;;
23573;SDS011;11965;53.640;10.050;2023-12-20T01:02:31;7.05;;;4.47;;
23573;SDS011;11965;53.640;10.050;2023-12-20T01:04:59;7.90;;;4.87;;
23573;SDS011;11965;53.640;10.050;2023-12-20T01:07:26;8.07;;;4.96;;
23573;SDS011;11965;53.640;10.050;2023-12-20T01:09:53;7.16;;;4.55;;
23573;SDS011;11965;53.640;10.050;2023-12-20T01:12:20;6.18;;;4.01;;
23573;SDS011;11965;53.640;10.050;2023-12-20T01:14:47;6.50;;;4.18;;
23573;SDS011;11965;53.640;10.050;2023-12-20T01:17:14;7.64;;;4.86;;
23573;SDS011;11965;53.640;10.050;2023-12-20T01:19:41;7.19;;;4.42;;
23573;SDS011;11965;53.640;10.050;2023-12-20T01:22:09;7.45;;;4.57;;
23573;SDS011;11965;53.640;10.050;2023-12-20T01:24:35;6.72;;;4.24;;
23573;SDS011;11965;53.640;10.050;2023-12-20T01:27:02;6.82;;;4.34;;
23573;SDS011;11965;53.640;10.050;2023-12-20T01:29:29;6.68;;;4.26;;
23573;SDS011;11965;53.640;10.050;2023-12-20T01:31:56;6.64;;;4.23;;
23573;SDS011;11965;53.640;10.050;2023-12-20T01:34:23;6.93;;;4.50;;
23573;SDS011;11965;53.640;10.050;2023-12-20T01:36:50;5.94;;;3.89;;
23573;SDS011;11965;53.640;10.050;2023-12-20T01:39:18;5.50;;;3.65;;
23573;SDS011;11965;53.640;10.050;2023-12-20T01:41:45;7.52;;;4.84;;
23573;SDS011;11965;53.640;10.050;2023-12-20T01:44:12;6.65;;;4.25;;
23573;SDS011;11965;53.640;10.050;2023-12-20T01:46:39;7.22;;;4.63;;
23573;SDS011;11965;53.640;10.050;2023-12-20T01:49:06;5.93;;;3.79;;
23573;SDS011;11965;53.640;10.050;2023-12-20T01:51:34;6.76;;;4.35;;
23573;SDS011;11965;53.640;10.050;2023-12-20T01:54:02;6.56;;;4.24;;
23573;SDS011;11965;53.640;10.050;2023-12-20T01:56:32;7.05;;;4.53;;
23573;SDS011;11965;53.640;10.050;2023-12-20T01:59:00;6.29;;;4.03;;
23573;SDS011;11965;53.640;10.050;2023-12-20T02:01:29;6.80;;;4.38;;
23573;SDS011;11965;53.640;10.050;2023-12-20T02:03:57;6.70;;;4.24;;
23573;SDS011;11965;53.640;10.050;2023-12-20T02:06:27;7.10;;;4.46;;
23573;SDS011;11965;53.640;10.050;2023-12-20T02:08:57;6.76;;;4.24;;
23573;SDS011;11965;53.640;10.050;2023-12-20T02:11:24;7.31;;;4.51;;
23573;SDS011;11965;53.640;10.050;2023-12-20T02:13:52;7.08;;;4.38;;
23573;SDS011;11965;53.640;10.050;2023-12-20T02:16:20;6.89;;;4.25;;
23573;SDS011;11965;53.640;10.050;2023-12-20T02:18:48;6.76;;;4.23;;
23573;SDS011;11965;53.640;10.050;2023-12-20T02:21:15;7.39;;;4.64;;
23573;SDS011;11965;53.640;10.050;2023-12-20T02:23:43;6.81;;;4.36;;
23573;SDS011;11965;53.640;10.050;2023-12-20T02:26:10;7.37;;;4.66;;
23573;SDS011;11965;53.640;10.050;2023-12-20T02:28:39;7.48;;;4.73;;
23573;SDS011;11965;53.640;10.050;2023-12-20T02:31:06;6.36;;;4.06;;
23573;SDS011;11965;53.640;10.050;2023-12-20T02:33:32;7.18;;;4.61;;
23573;SDS011;11965;53.640;10.050;2023-12-20T02:35:59;6.80;;;4.38;;
23573;SDS011;11965;53.640;10.050;2023-12-20T02:38:26;6.59;;;4.33;;
23573;SDS011;11965;53.640;10.050;2023-12-20T02:40:54;6.52;;;4.27;;
23573;SDS011;11965;53.640;10.050;2023-12-20T02:43:21;6.17;;;4.02;;
23573;SDS011;11965;53.640;10.050;2023-12-20T02:45:48;7.14;;;4.56;;
23573;SDS011;11965;53.640;10.050;2023-12-20T02:48:15;6.83;;;4.39;;
23573;SDS011;11965;53.640;10.050;2023-12-20T02:50:42;6.31;;;4.19;;
23573;SDS011;11965;53.640;10.050;2023-12-20T02:53:08;6.44;;;4.19;;
23573;SDS011;11965;53.640;10.050;2023-12-20T02:55:35;6.28;;;4.05;;
23573;SDS011;11965;53.640;10.050;2023-12-20T02:58:03;6.40;;;4.06;;
23573;SDS011;11965;53.640;10.050;2023-12-20T03:00:30;6.86;;;4.39;;
23573;SDS011;11965;53.640;10.050;2023-12-20T03:02:57;6.73;;;4.33;;
23573;SDS011;11965;53.640;10.050;2023-12-20T03:05:25;6.71;;;4.38;;
23573;SDS011;11965;53.640;10.050;2023-12-20T03:07:52;6.88;;;4.56;;
23573;SDS011;11965;53.640;10.050;2023-12-20T03:10:18;6.44;;;4.38;;
23573;SDS011;11965;53.640;10.050;2023-12-20T03:12:45;6.02;;;4.09;;
23573;SDS011;11965;53.640;10.050;2023-12-20T03:15:13;6.72;;;4.58;;
23573;SDS011;11965;53.640;10.050;2023-12-20T03:17:40;6.07;;;4.21;;
23573;SDS011;11965;53.640;10.050;2023-12-20T03:20:08;6.68;;;4.56;;
23573;SDS011;11965;53.640;10.050;2023-12-20T03:22:35;6.13;;;4.20;;
23573;SDS011;11965;53.640;10.050;2023-12-20T03:25:02;6.02;;;4.10;;
23573;SDS011;11965;53.640;10.050;2023-12-20T03:27:28;6.88;;;4.65;;
23573;SDS011;11965;53.640;10.050;2023-12-20T03:29:55;5.80;;;3.89;;
23573;SDS011;11965;53.640;10.050;2023-12-20T03:32:23;6.10;;;4.25;;
23573;SDS011;11965;53.640;10.050;2023-12-20T03:34:50;4.88;;;3.49;;
23573;SDS011;11965;53.640;10.050;2023-12-20T03:37:17;5.10;;;3.74;;
23573;SDS011;11965;53.640;10.050;2023-12-20T03:39:44;5.10;;;3.73;;
23573;SDS011;11965;53.640;10.050;2023-12-20T03:42:11;5.05;;;3.57;;
23573;SDS011;11965;53.640;10.050;2023-12-20T03:44:38;5.08;;;3.60;;
23573;SDS011;11965;53.640;10.050;2023-12-20T03:47:05;5.06;;;3.57;;
23573;SDS011;11965;53.640;10.050;2023-12-20T03:49:34;4.79;;;3.43;;
23573;SDS011;11965;53.640;10.050;2023-12-20T03:52:02;5.11;;;3.67;;
23573;SDS011;11965;53.640;10.050;2023-12-20T03:54:29;5.63;;;3.99;;
23573;SDS011;11965;53.640;10.050;2023-12-20T03:56:56;6.16;;;4.25;;
23573;SDS011;11965;53.640;10.050;2023-12-20T03:59:23;5.44;;;3.70;;
23573;SDS011;11965;53.640;10.050;2023-12-20T04:01:50;5.92;;;4.06;;
23573;SDS011;11965;53.640;10.050;2023-12-20T04:04:17;5.26;;;3.61;;
23573;SDS011;11965;53.640;10.050;2023-12-20T04:06:45;5.06;;;3.49;;
23573;SDS011;11965;53.640;10.050;2023-12-20T04:09:12;5.56;;;3.82;;
23573;SDS011;11965;53.640;10.050;2023-12-20T04:11:39;6.07;;;4.14;;
23573;SDS011;11965;53.640;10.050;2023-12-20T04:14:06;5.45;;;3.71;;
23573;SDS011;11965;53.640;10.050;2023-12-20T04:16:32;5.91;;;4.13;;
23573;SDS011;11965;53.640;10.050;2023-12-20T04:18:59;4.98;;;3.55;;
23573;SDS011;11965;53.640;10.050;2023-12-20T04:21:26;5.48;;;3.96;;
23573;SDS011;11965;53.640;10.050;2023-12-20T04:23:54;5.33;;;3.87;;
23573;SDS011;11965;53.640;10.050;2023-12-20T04:26:21;4.86;;;3.52;;
23573;SDS011;11965;53.640;10.050;2023-12-20T04:28:48;4.69;;;3.49;;
23573;SDS011;11965;53.640;10.050;2023-12-20T04:31:15;5.58;;;4.05;;
23573;SDS011;11965;53.640;10.050;2023-12-20T04:33:42;5.43;;;3.96;;
23573;SDS011;11965;53.640;10.050;2023-12-20T04:36:09;5.79;;;4.20;;
23573;SDS011;11965;53.640;10.050;2023-12-20T04:38:36;5.55;;;3.95;;
23573;SDS011;11965;53.640;10.050;2023-12-20T04:41:04;5.68;;;4.06;;
23573;SDS011;11965;53.640;10.050;2023-12-20T04:43:31;5.43;;;3.84;;
23573;SDS011;11965;53.640;10.050;2023-12-20T04:45:58;4.85;;;3.47;;
23573;SDS011;11965;53.640;10.050;2023-12-20T04:48:25;5.76;;;4.06;;
23573;SDS011;11965;53.640;10.050;2023-12-20T04:50:51;5.25;;;3.73;;
23573;SDS011;11965;53.640;10.050;2023-12-20T04:53:18;5.32;;;3.79;;
23573;SDS011;11965;53.640;10.050;2023-12-20T04:55:45;5.49;;;3.82;;
23573;SDS011;11965;53.640;10.050;2023-12-20T04:58:13;5.44;;;3.77;;
23573;SDS011;11965;53.640;10.050;2023-12-20T05:00:40;5.38;;;3.86;;
23573;SDS011;11965;53.640;10.050;2023-12-20T05:03:07;5.38;;;3.87;;
23573;SDS011;11965;53.640;10.050;2023-12-20T05:05:34;5.05;;;3.59;;
23573;SDS011;11965;53.640;10.050;2023-12-20T05:08:01;5.33;;;3.79;;
23573;SDS011;11965;53.640;10.050;2023-12-20T05:10:29;5.43;;;3.87;;
23573;SDS011;11965;53.640;10.050;2023-12-20T05:12:56;5.47;;;3.87;;
23573;SDS011;11965;53.640;10.050;2023-12-20T05:15:24;6.39;;;4.44;;
23573;SDS011;11965;53.640;10.050;2023-12-20T05:17:51;6.39;;;4.37;;
23573;SDS011;11965;53.640;10.050;2023-12-20T05:20:18;6.45;;;4.37;;
23573;SDS011;11965;53.640;10.050;2023-12-20T05:22:45;6.39;;;4.43;;
23573;SDS011;11965;53.640;10.050;2023-12-20T05:25:12;6.58;;;4.50;;
23573;SDS011;11965;53.640;10.050;2023-12-20T05:27:39;6.30;;;4.36;;
23573;SDS011;11965;53.640;10.050;2023-12-20T05:30:06;6.33;;;4.37;;
23573;SDS011;11965;53.640;10.050;2023-12-20T05:32:35;6.45;;;4.54;;
23573;SDS011;11965;53.640;10.050;2023-12-20T05:35:02;6.09;;;4.32;;
23573;SDS011;11965;53.640;10.050;2023-12-20T05:37:30;6.41;;;4.53;;
23573;SDS011;11965;53.640;10.050;2023-12-20T05:39:57;5.96;;;4.20;;
23573;SDS011;11965;53.640;10.050;2023-12-20T05:42:23;5.93;;;4.31;;
23573;SDS011;11965;53.640;10.050;2023-12-20T05:44:50;6.73;;;4.93;;
23573;SDS011;11965;53.640;10.050;2023-12-20T05:47:17;6.49;;;4.74;;
23573;SDS011;11965;53.640;10.050;2023-12-20T05:49:45;5.90;;;4.30;;
23573;SDS011;11965;53.640;10.050;2023-12-20T05:52:12;5.87;;;4.33;;
23573;SDS011;11965;53.640;10.050;2023-12-20T05:54:40;6.20;;;4.57;;
23573;SDS011;11965;53.640;10.050;2023-12-20T05:57:06;5.70;;;4.34;;
23573;SDS011;11965;53.640;10.050;2023-12-20T05:59:33;6.01;;;4.47;;
23573;SDS011;11965;53.640;10.050;2023-12-20T06:02:00;6.09;;;4.50;;
23573;SDS011;11965;53.640;10.050;2023-12-20T06:04:27;6.32;;;4.69;;
23573;SDS011;11965;53.640;10.050;2023-12-20T06:06:55;6.36;;;4.71;;
23573;SDS011;11965;53.640;10.050;2023-12-20T06:09:22;6.18;;;4.59;;
23573;SDS011;11965;53.640;10.050;2023-12-20T06:11:49;6.09;;;4.53;;
23573;SDS011;11965;53.640;10.050;2023-12-20T06:14:16;6.51;;;4.81;;
23573;SDS011;11965;53.640;10.050;2023-12-20T06:16:44;6.83;;;4.89;;
23573;SDS011;11965;53.640;10.050;2023-12-20T06:19:11;6.38;;;4.50;;
23573;SDS011;11965;53.640;10.050;2023-12-20T06:21:39;7.87;;;5.51;;
23573;SDS011;11965;53.640;10.050;2023-12-20T06:24:07;8.17;;;5.65;;
23573;SDS011;11965;53.640;10.050;2023-12-20T06:26:35;7.53;;;5.37;;
23573;SDS011;11965;53.640;10.050;2023-12-20T06:29:01;7.40;;;5.19;;
23573;SDS011;11965;53.640;10.050;2023-12-20T06:31:28;7.66;;;5.36;;
23573;SDS011;11965;53.640;10.050;2023-12-20T06:33:55;7.31;;;5.16;;
23573;SDS011;11965;53.640;10.050;2023-12-20T06:36:25;7.88;;;5.52;;
23573;SDS011;11965;53.640;10.050;2023-12-20T06:38:52;8.68;;;5.92;;
23573;SDS011;11965;53.640;10.050;2023-12-20T06:41:20;8.44;;;5.76;;
23573;SDS011;11965;53.640;10.050;2023-12-20T06:43:49;7.49;;;5.25;;
23573;SDS011;11965;53.640;10.050;2023-12-20T06:46:16;8.00;;;5.58;;
23573;SDS011;11965;53.640;10.050;2023-12-20T06:48:43;7.24;;;5.12;;
23573;SDS011;11965;53.640;10.050;2023-12-20T06:51:11;7.61;;;5.35;;
23573;SDS011;11965;53.640;10.050;2023-12-20T06:53:40;7.76;;;5.45;;
23573;SDS011;11965;53.640;10.050;2023-12-20T06:56:07;7.38;;;5.16;;
23573;SDS011;11965;53.640;10.050;2023-12-20T06:58:36;7.86;;;5.57;;
23573;SDS011;11965;53.640;10.050;2023-12-20T07:01:04;8.02;;;5.68;;
23573;SDS011;11965;53.640;10.050;2023-12-20T07:03:31;8.93;;;6.12;;
23573;SDS011;11965;53.640;10.050;2023-12-20T07:05:57;7.41;;;5.16;;
23573;SDS011;11965;53.640;10.050;2023-12-20T07:08:25;6.82;;;4.84;;
23573;SDS011;11965;53.640;10.050;2023-12-20T07:10:51;6.90;;;4.92;;
23573;SDS011;11965;53.640;10.050;2023-12-20T07:13:18;7.85;;;5.32;;
23573;SDS011;11965;53.640;10.050;2023-12-20T07:15:46;7.54;;;5.17;;
23573;SDS011;11965;53.640;10.050;2023-12-20T07:18:13;8.31;;;5.70;;
23573;SDS011;11965;53.640;10.050;2023-12-20T07:20:40;7.44;;;5.02;;
23573;SDS011;11965;53.640;10.050;2023-12-20T07:23:08;7.89;;;5.30;;
23573;SDS011;11965;53.640;10.050;2023-12-20T07:25:35;7.78;;;5.18;;
23573;SDS011;11965;53.640;10.050;2023-12-20T07:28:04;7.89;;;5.33;;
23573;SDS011;11965;53.640;10.050;2023-12-20T07:30:32;7.70;;;5.24;;
23573;SDS011;11965;53.640;10.050;2023-12-20T07:33:00;8.73;;;5.86;;
23573;SDS011;11965;53.640;10.050;2023-12-20T07:35:28;8.44;;;5.54;;
23573;SDS011;11965;53.640;10.050;2023-12-20T07:37:54;10.05;;;6.62;;
23573;SDS011;11965;53.640;10.050;2023-12-20T07:40:22;8.85;;;5.85;;
23573;SDS011;11965;53.640;10.050;2023-12-20T07:42:50;8.75;;;5.81;;
23573;SDS011;11965;53.640;10.050;2023-12-20T07:45:16;8.06;;;5.32;;
23573;SDS011;11965;53.640;10.050;2023-12-20T07:47:43;7.83;;;5.20;;
23573;SDS011;11965;53.640;10.050;2023-12-20T07:50:12;8.97;;;5.93;;
23573;SDS011;11965;53.640;10.050;2023-12-20T07:52:38;8.40;;;5.73;;
23573;SDS011;11965;53.640;10.050;2023-12-20T07:55:06;9.00;;;6.18;;
23573;SDS011;11965;53.640;10.050;2023-12-20T07:57:33;8.58;;;5.81;;
23573;SDS011;11965;53.640;10.050;2023-12-20T08:00:00;10.19;;;6.70;;
23573;SDS011;11965;53.640;10.050;2023-12-20T08:02:30;9.31;;;6.26;;
23573;SDS011;11965;53.640;10.050;2023-12-20T08:04:56;9.27;;;6.42;;
23573;SDS011;11965;53.640;10.050;2023-12-20T08:07:25;8.44;;;5.83;;
23573;SDS011;11965;53.640;10.050;2023-12-20T08:09:52;9.88;;;7.26;;
23573;SDS011;11965;53.640;10.050;2023-12-20T08:12:20;7.71;;;5.77;;
23573;SDS011;11965;53.640;10.050;2023-12-20T08:14:47;8.83;;;6.14;;
23573;SDS011;11965;53.640;10.050;2023-12-20T08:17:14;8.58;;;5.87;;
23573;SDS011;11965;53.640;10.050;2023-12-20T08:19:41;8.50;;;5.81;;
23573;SDS011;11965;53.640;10.050;2023-12-20T08:22:08;9.03;;;6.08;;
23573;SDS011;11965;53.640;10.050;2023-12-20T08:24:36;8.53;;;5.93;;
23573;SDS011;11965;53.640;10.050;2023-12-20T08:27:03;9.25;;;6.22;;
23573;SDS011;11965;53.640;10.050;2023-12-20T08:29:30;8.35;;;5.70;;
23573;SDS011;11965;53.640;10.050;2023-12-20T08:31:57;8.51;;;5.92;;
23573;SDS011;11965;53.640;10.050;2023-12-20T08:34:25;8.54;;;5.95;;
23573;SDS011;11965;53.640;10.050;2023-12-20T08:36:52;8.00;;;5.59;;
23573;SDS011;11965;53.640;10.050;2023-12-20T08:39:19;9.24;;;6.30;;
23573;SDS011;11965;53.640;10.050;2023-12-20T08:41:47;8.91;;;6.04;;
23573;SDS011;11965;53.640;10.050;2023-12-20T08:44:14;9.88;;;6.68;;
23573;SDS011;11965;53.640;10.050;2023-12-20T08:46:41;9.77;;;6.31;;
23573;SDS011;11965;53.640;10.050;2023-12-20T08:49:08;8.75;;;5.84;;
23573;SDS011;11965;53.640;10.050;2023-12-20T08:51:35;9.39;;;6.39;;
23573;SDS011;11965;53.640;10.050;2023-12-20T08:54:05;8.78;;;5.95;;
23573;SDS011;11965;53.640;10.050;2023-12-20T08:56:33;8.52;;;5.86;;
23573;SDS011;11965;53.640;10.050;2023-12-20T08:59:01;7.91;;;5.48;;
23573;SDS011;11965;53.640;10.050;2023-12-20T09:01:28;9.63;;;6.48;;
23573;SDS011;11965;53.640;10.050;2023-12-20T09:03:55;9.91;;;6.67;;
23573;SDS011;11965;53.640;10.050;2023-12-20T09:06:22;8.89;;;5.94;;
23573;SDS011;11965;53.640;10.050;2023-12-20T09:08:49;8.42;;;5.77;;
23573;SDS011;11965;53.640;10.050;2023-12-20T09:11:16;7.63;;;5.38;;
23573;SDS011;11965;53.640;10.050;2023-12-20T09:13:43;7.08;;;5.06;;
23573;SDS011;11965;53.640;10.050;2023-12-20T09:16:11;6.17;;;4.47;;
23573;SDS011;11965;53.640;10.050;2023-12-20T09:18:41;6.61;;;4.80;;
23573;SDS011;11965;53.640;10.050;2023-12-20T09:21:08;7.48;;;5.64;;
23573;SDS011;11965;53.640;10.050;2023-12-20T09:23:35;5.17;;;4.02;;
23573;SDS011;11965;53.640;10.050;2023-12-20T09:26:03;5.27;;;4.00;;
23573;SDS011;11965;53.640;10.050;2023-12-20T09:28:30;5.64;;;4.16;;
23573;SDS011;11965;53.640;10.050;2023-12-20T09:31:02;5.62;;;4.09;;
23573;SDS011;11965;53.640;10.050;2023-12-20T09:33:32;4.13;;;3.12;;
23573;SDS011;11965;53.640;10.050;2023-12-20T09:35:59;3.94;;;2.97;;
23573;SDS011;11965;53.640;10.050;2023-12-20T09:38:26;3.48;;;2.67;;
23573;SDS011;11965;53.640;10.050;2023-12-20T09:40:54;2.64;;;2.02;;
23573;SDS011;11965;53.640;10.050;2023-12-20T09:43:22;2.69;;;2.00;;
23573;SDS011;11965;53.640;10.050;2023-12-20T09:45:52;2.75;;;2.00;;
23573;SDS011;11965;53.640;10.050;2023-12-20T09:48:20;2.23;;;1.61;;
23573;SDS011;11965;53.640;10.050;2023-12-20T09:50:48;2.47;;;1.81;;
23573;SDS011;11965;53.640;10.050;2023-12-20T09:53:15;1.86;;;1.37;;
23573;SDS011;11965;53.640;10.050;2023-12-20T09:55:44;1.79;;;1.33;;
23573;SDS011;11965;53.640;10.050;2023-12-20T09:58:11;1.71;;;1.28;;
23573;SDS011;11965;53.640;10.050;2023-12-20T10:00:38;1.77;;;1.32;;
23573;SDS011;11965;53.640;10.050;2023-12-20T10:03:05;1.51;;;1.13;;
23573;SDS011;11965;53.640;10.050;2023-12-20T10:05:34;1.43;;;1.08;;
23573;SDS011;11965;53.640;10.050;2023-12-20T10:08:03;1.34;;;1.01;;
23573;SDS011;11965;53.640;10.050;2023-12-20T10:10:30;1.40;;;1.03;;
23573;SDS011;11965;53.640;10.050;2023-12-20T10:13:00;1.59;;;1.18;;
23573;SDS011;11965;53.640;10.050;2023-12-20T10:15:29;1.47;;;1.10;;
23573;SDS011;11965;53.640;10.050;2023-12-20T10:17:57;1.73;;;1.28;;
23573;SDS011;11965;53.640;10.050;2023-12-20T10:20:24;2.09;;;1.51;;
23573;SDS011;11965;53.640;10.050;2023-12-20T10:22:51;2.18;;;1.57;;
23573;SDS011;11965;53.640;10.050;2023-12-20T10:25:21;2.51;;;1.79;;
23573;SDS011;11965;53.640;10.050;2023-12-20T10:27:49;2.46;;;1.71;;
23573;SDS011;11965;53.640;10.050;2023-12-20T10:30:17;2.45;;;1.67;;
23573;SDS011;11965;53.640;10.050;2023-12-20T10:32:44;2.66;;;1.82;;
23573;SDS011;11965;53.640;10.050;2023-12-20T10:35:11;2.97;;;1.99;;
23573;SDS011;11965;53.640;10.050;2023-12-20T10:37:38;2.80;;;1.87;;
23573;SDS011;11965;53.640;10.050;2023-12-20T10:40:06;2.93;;;1.91;;
23573;SDS011;11965;53.640;10.050;2023-12-20T10:42:35;3.26;;;2.08;;
23573;SDS011;11965;53.640;10.050;2023-12-20T10:45:04;3.56;;;2.30;;
23573;SDS011;11965;53.640;10.050;2023-12-20T10:47:31;2.91;;;1.87;;
23573;SDS011;11965;53.640;10.050;2023-12-20T10:49:59;3.28;;;2.11;;
23573;SDS011;11965;53.640;10.050;2023-12-20T10:52:28;3.04;;;1.97;;
23573;SDS011;11965;53.640;10.050;2023-12-20T10:54:58;3.56;;;2.28;;
23573;SDS011;11965;53.640;10.050;2023-12-20T10:57:25;3.94;;;2.53;;
23573;SDS011;11965;53.640;10.050;2023-12-20T10:59:56;3.58;;;2.33;;
23573;SDS011;11965;53.640;10.050;2023-12-20T11:02:29;3.27;;;2.12;;
23573;SDS011;11965;53.640;10.050;2023-12-20T11:04:59;3.38;;;2.21;;
23573;SDS011;11965;53.640;10.050;2023-12-20T11:07:37;3.12;;;2.09;;
23573;SDS011;11965;53.640;10.050;2023-12-20T11:10:10;3.40;;;2.26;;
23573;SDS011;11965;53.640;10.050;2023-12-20T11:12:47;3.40;;;2.25;;
23573;SDS011;11965;53.640;10.050;2023-12-20T11:15:20;3.31;;;2.23;;
23573;SDS011;11965;53.640;10.050;2023-12-20T11:17:54;3.66;;;2.45;;
23573;SDS011;11965;53.640;10.050;2023-12-20T11:20:22;3.53;;;2.29;;
23573;SDS011;11965;53.640;10.050;2023-12-20T11:22:53;4.55;;;2.93;;
23573;SDS011;11965;53.640;10.050;2023-12-20T11:25:21;3.97;;;2.57;;
23573;SDS011;11965;53.640;10.050;2023-12-20T11:28:08;3.81;;;2.45;;
23573;SDS011;11965;53.640;10.050;2023-12-20T11:30:42;5.03;;;3.20;;
23573;SDS011;11965;53.640;10.050;2023-12-20T11:33:12;5.14;;;3.19;;
23573;SDS011;11965;53.640;10.050;2023-12-20T11:35:40;4.79;;;2.99;;
23573;SDS011;11965;53.640;10.050;2023-12-20T11:38:07;4.01;;;2.52;;
23573;SDS011;11965;53.640;10.050;2023-12-20T11:40:35;5.08;;;3.24;;
23573;SDS011;11965;53.640;10.050;2023-12-20T11:43:02;4.53;;;2.84;;
23573;SDS011;11965;53.640;10.050;2023-12-20T11:45:30;3.93;;;2.47;;
23573;SDS011;11965;53.640;10.050;2023-12-20T11:47:59;4.31;;;2.71;;
23573;SDS011;11965;53.640;10.050;2023-12-20T11:50:25;4.24;;;2.73;;
23573;SDS011;11965;53.640;10.050;2023-12-20T11:52:53;3.52;;;2.30;;
23573;SDS011;11965;53.640;10.050;2023-12-20T11:55:20;3.71;;;2.45;;
23573;SDS011;11965;53.640;10.050;2023-12-20T11:57:47;3.97;;;2.70;;
23573;SDS011;11965;53.640;10.050;2023-12-20T12:00:15;4.17;;;2.88;;
23573;SDS011;11965;53.640;10.050;2023-12-20T12:02:42;4.05;;;2.79;;
23573;SDS011;11965;53.640;10.050;2023-12-20T12:05:11;4.38;;;2.98;;
23573;SDS011;11965;53.640;10.050;2023-12-20T12:07:38;5.77;;;3.93;;
23573;SDS011;11965;53.640;10.050;2023-12-20T12:10:05;5.81;;;3.84;;
23573;SDS011;11965;53.640;10.050;2023-12-20T12:12:33;6.09;;;4.03;;
23573;SDS011;11965;53.640;10.050;2023-12-20T12:15:00;6.68;;;4.42;;
23573;SDS011;11965;53.640;10.050;2023-12-20T12:17:28;8.13;;;5.32;;
23573;SDS011;11965;53.640;10.050;2023-12-20T12:20:01;7.26;;;4.71;;
23573;SDS011;11965;53.640;10.050;2023-12-20T12:22:32;6.94;;;4.54;;
23573;SDS011;11965;53.640;10.050;2023-12-20T12:24:59;6.59;;;4.39;;
23573;SDS011;11965;53.640;10.050;2023-12-20T12:27:36;6.99;;;4.58;;
23573;SDS011;11965;53.640;10.050;2023-12-20T12:30:04;7.81;;;4.98;;
23573;SDS011;11965;53.640;10.050;2023-12-20T12:32:33;8.22;;;5.17;;
23573;SDS011;11965;53.640;10.050;2023-12-20T12:35:02;9.42;;;5.90;;
23573;SDS011;11965;53.640;10.050;2023-12-20T12:37:31;10.20;;;6.29;;
23573;SDS011;11965;53.640;10.050;2023-12-20T12:40:00;9.32;;;5.84;;
23573;SDS011;11965;53.640;10.050;2023-12-20T12:42:28;9.47;;;5.90;;
23573;SDS011;11965;53.640;10.050;2023-12-20T12:44:55;9.48;;;5.92;;
23573;SDS011;11965;53.640;10.050;2023-12-20T12:47:22;8.23;;;5.19;;
23573;SDS011;11965;53.640;10.050;2023-12-20T12:49:49;9.63;;;6.04;;
23573;SDS011;11965;53.640;10.050;2023-12-20T12:52:18;9.44;;;5.97;;
23573;SDS011;11965;53.640;10.050;2023-12-20T12:54:46;9.96;;;6.45;;
23573;SDS011;11965;53.640;10.050;2023-12-20T12:57:13;10.88;;;6.93;;
23573;SDS011;11965;53.640;10.050;2023-12-20T12:59:42;9.91;;;6.40;;
23573;SDS011;11965;53.640;10.050;2023-12-20T13:02:11;9.82;;;6.35;;
23573;SDS011;11965;53.640;10.050;2023-12-20T13:04:38;9.38;;;6.06;;
23573;SDS011;11965;53.640;10.050;2023-12-20T13:07:06;9.19;;;5.99;;
23573;SDS011;11965;53.640;10.050;2023-12-20T13:09:35;10.41;;;6.79;;
23573;SDS011;11965;53.640;10.050;2023-12-20T13:12:05;9.36;;;6.10;;
23573;SDS011;11965;53.640;10.050;2023-12-20T13:14:33;9.16;;;5.92;;
23573;SDS011;11965;53.640;10.050;2023-12-20T13:17:02;9.18;;;5.97;;
23573;SDS011;11965;53.640;10.050;2023-12-20T13:19:30;10.05;;;6.47;;
23573;SDS011;11965;53.640;10.050;2023-12-20T13:21:57;10.50;;;6.74;;
23573;SDS011;11965;53.640;10.050;2023-12-20T13:24:24;9.28;;;6.05;;
23573;SDS011;11965;53.640;10.050;2023-12-20T13:26:51;8.90;;;5.93;;
23573;SDS011;11965;53.640;10.050;2023-12-20T13:29:19;9.21;;;6.12;;
23573;SDS011;11965;53.640;10.050;2023-12-20T13:31:46;8.71;;;5.84;;
23573;SDS011;11965;53.640;10.050;2023-12-20T13:34:13;10.25;;;6.92;;
23573;SDS011;11965;53.640;10.050;2023-12-20T13:36:42;9.56;;;6.48;;
23573;SDS011;11965;53.640;10.050;2023-12-20T13:39:12;9.38;;;6.33;;
23573;SDS011;11965;53.640;10.050;2023-12-20T13:41:39;10.48;;;7.06;;
23573;SDS011;11965;53.640;10.050;2023-12-20T13:44:07;9.00;;;6.23;;
23573;SDS011;11965;53.640;10.050;2023-12-20T13:46:35;9.93;;;6.88;;
23573;SDS011;11965;53.640;10.050;2023-12-20T13:49:02;10.32;;;7.06;;
23573;SDS011;11965;53.640;10.050;2023-12-20T13:51:30;9.52;;;6.60;;
23573;SDS011;11965;53.640;10.050;2023-12-20T13:53:57;9.11;;;6.64;;
23573;SDS011;11965;53.640;10.050;2023-12-20T13:56:24;9.11;;;6.63;;
23573;SDS011;11965;53.640;10.050;2023-12-20T13:58:52;9.26;;;6.64;;
23573;SDS011;11965;53.640;10.050;2023-12-20T14:01:19;9.53;;;6.90;;
23573;SDS011;11965;53.640;10.050;2023-12-20T14:03:47;10.36;;;7.42;;
23573;SDS011;11965;53.640;10.050;2023-12-20T14:06:14;10.89;;;7.71;;
23573;SDS011;11965;53.640;10.050;2023-12-20T14:08:41;10.18;;;7.35;;
23573;SDS011;11965;53.640;10.050;2023-12-20T14:11:09;10.12;;;7.31;;
23573;SDS011;11965;53.640;10.050;2023-12-20T14:13:36;9.55;;;7.07;;
23573;SDS011;11965;53.640;10.050;2023-12-20T14:16:03;9.20;;;7.04;;
23573;SDS011;11965;53.640;10.050;2023-12-20T14:18:30;9.08;;;6.92;;
23573;SDS011;11965;53.640;10.050;2023-12-20T14:20:58;9.68;;;7.43;;
23573;SDS011;11965;53.640;10.050;2023-12-20T14:23:25;10.16;;;7.90;;
23573;SDS011;11965;53.640;10.050;2023-12-20T14:25:52;9.41;;;7.52;;
23573;SDS011;11965;53.640;10.050;2023-12-20T14:28:21;7.98;;;6.51;;
23573;SDS011;11965;53.640;10.050;2023-12-20T14:30:48;9.07;;;7.52;;
23573;SDS011;11965;53.640;10.050;2023-12-20T14:33:15;8.30;;;6.95;;
23573;SDS011;11965;53.640;10.050;2023-12-20T14:35:42;8.86;;;7.35;;